createdAt,value
2023-05-21T00:01:08.164Z,100474.47
2023-05-21T00:03:36.240Z,100469.56
2023-05-21T00:06:03.952Z,100474.50
2023-05-21T00:08:31.116Z,100474.88
2023-05-21T00:10:57.861Z,100473.53
2023-05-21T00:13:24.570Z,100478.50
2023-05-21T00:15:51.721Z,100485.63
2023-05-21T00:18:18.516Z,100476.81
2023-05-21T00:20:45.789Z,100477.00
2023-05-21T00:23:12.510Z,100475.47
2023-05-21T00:25:39.290Z,100470.03
2023-05-21T00:28:05.865Z,100473.97
2023-05-21T00:30:32.488Z,100477.72
2023-05-21T00:33:02.467Z,100484.53
2023-05-21T00:35:29.538Z,100479.63
2023-05-21T00:37:56.417Z,100487.97
2023-05-21T00:40:23.249Z,100481.16
2023-05-21T00:42:49.909Z,100478.81
2023-05-21T00:45:16.583Z,100480.31
2023-05-21T00:47:44.056Z,100470.84
2023-05-21T00:50:12.137Z,100474.09
2023-05-21T00:52:42.279Z,100473.41
2023-05-21T00:55:10.646Z,100467.50
2023-05-21T00:57:37.817Z,100469.56
2023-05-21T01:00:09.162Z,100469.41
2023-05-21T01:02:37.423Z,100477.88
2023-05-21T01:05:06.172Z,100470.94
2023-05-21T01:07:35.188Z,100469.25
2023-05-21T01:10:07.702Z,100451.25
2023-05-21T01:12:35.830Z,100457.53
2023-05-21T01:15:04.210Z,100459.56
2023-05-21T01:17:31.864Z,100451.78
2023-05-21T01:19:59.479Z,100458.56
2023-05-21T01:22:28.554Z,100457.06
2023-05-21T01:24:55.669Z,100455.22
2023-05-21T01:27:22.940Z,100450.81
2023-05-21T01:29:49.766Z,100457.09
2023-05-21T01:32:26.649Z,100456.41
2023-05-21T01:35:04.823Z,100462.88
2023-05-21T01:37:35.432Z,100464.91
2023-05-21T01:40:14.922Z,100461.00
2023-05-21T01:42:45.530Z,100465.78
2023-05-21T01:45:14.546Z,100459.84
2023-05-21T01:47:44.221Z,100467.16
2023-05-21T01:50:11.346Z,100459.34
2023-05-21T01:52:38.001Z,100458.84
2023-05-21T01:55:05.021Z,100461.06
2023-05-21T01:57:31.946Z,100462.44
2023-05-21T01:59:59.435Z,100461.22
2023-05-21T02:02:26.045Z,100461.75
2023-05-21T02:04:52.809Z,100460.91
2023-05-21T02:07:19.937Z,100468.72
2023-05-21T02:09:46.627Z,100467.00
2023-05-21T02:12:13.366Z,100458.34
2023-05-21T02:14:40.051Z,100464.81
2023-05-21T02:17:08.178Z,100455.47
2023-05-21T02:19:35.048Z,100454.78
2023-05-21T02:22:01.804Z,100449.53
2023-05-21T02:24:29.248Z,100449.88
2023-05-21T02:26:55.845Z,100445.63
2023-05-21T02:29:22.438Z,100452.25
2023-05-21T02:31:50.427Z,100453.75
2023-05-21T02:34:17.668Z,100450.69
2023-05-21T02:36:44.332Z,100462.94
2023-05-21T02:39:11.032Z,100462.91
2023-05-21T02:41:38.211Z,100457.66
2023-05-21T02:44:04.992Z,100461.38
2023-05-21T02:46:31.682Z,100451.53
2023-05-21T02:48:58.291Z,100454.41
2023-05-21T02:51:24.883Z,100453.91
2023-05-21T02:53:51.536Z,100463.91
2023-05-21T02:56:18.676Z,100456.81
2023-05-21T02:58:45.419Z,100460.50
2023-05-21T03:01:12.139Z,100462.88
2023-05-21T03:03:38.792Z,100464.41
2023-05-21T03:06:05.438Z,100464.41
2023-05-21T03:08:32.282Z,100461.00
2023-05-21T03:10:59.012Z,100460.31
2023-05-21T03:13:25.917Z,100449.66
2023-05-21T03:15:56.214Z,100456.94
2023-05-21T03:18:23.594Z,100446.25
2023-05-21T03:20:50.190Z,100448.78
2023-05-21T03:23:16.997Z,100448.44
2023-05-21T03:25:43.977Z,100446.59
2023-05-21T03:28:11.206Z,100454.72
2023-05-21T03:30:38.426Z,100453.19
2023-05-21T03:33:06.487Z,100455.06
2023-05-21T03:35:33.499Z,100456.25
2023-05-21T03:38:00.232Z,100453.53
2023-05-21T03:40:26.910Z,100449.97
2023-05-21T03:42:53.481Z,100458.09
2023-05-21T03:45:21.324Z,100459.78
2023-05-21T03:47:48.922Z,100454.38
2023-05-21T03:50:15.781Z,100457.94
2023-05-21T03:52:42.510Z,100459.47
2023-05-21T03:55:09.701Z,100470.84
2023-05-21T03:57:37.471Z,100465.78
2023-05-21T04:00:05.526Z,100476.28
2023-05-21T04:02:32.520Z,100469.50
2023-05-21T04:04:59.260Z,100467.81
2023-05-21T04:07:27.156Z,100466.31
2023-05-21T04:09:54.020Z,100470.22
2023-05-21T04:12:20.779Z,100469.53
2023-05-21T04:14:47.770Z,100472.28
2023-05-21T04:17:14.374Z,100473.28
2023-05-21T04:19:42.118Z,100468.00
2023-05-21T04:22:10.654Z,100468.03
2023-05-21T04:24:38.205Z,100469.41
2023-05-21T04:27:06.022Z,100478.22
2023-05-21T04:29:32.704Z,100471.94
2023-05-21T04:31:59.271Z,100467.34
2023-05-21T04:34:25.891Z,100470.19
2023-05-21T04:36:52.515Z,100466.78
2023-05-21T04:39:19.155Z,100469.81
2023-05-21T04:41:45.790Z,100472.88
2023-05-21T04:44:14.989Z,100475.25
2023-05-21T04:46:42.081Z,100476.56
2023-05-21T04:49:10.295Z,100475.22
2023-05-21T04:51:37.962Z,100464.50
2023-05-21T04:54:04.993Z,100462.59
2023-05-21T04:56:31.989Z,100457.31
2023-05-21T04:58:59.038Z,100457.66
2023-05-21T05:01:27.251Z,100454.22
2023-05-21T05:03:54.119Z,100458.78
2023-05-21T05:06:21.622Z,100461.47
2023-05-21T05:08:48.347Z,100466.03
2023-05-21T05:11:14.962Z,100459.69
2023-05-21T05:13:42.084Z,100456.44
2023-05-21T05:16:09.052Z,100453.63
2023-05-21T05:18:36.549Z,100451.91
2023-05-21T05:21:03.233Z,100460.19
2023-05-21T05:23:30.487Z,100456.09
2023-05-21T05:25:57.168Z,100451.91
2023-05-21T05:28:23.901Z,100454.53
2023-05-21T05:30:50.686Z,100456.34
2023-05-21T05:33:17.381Z,100457.13
2023-05-21T05:35:44.098Z,100462.53
2023-05-21T05:38:10.962Z,100452.44
2023-05-21T05:40:37.677Z,100457.44
2023-05-21T05:43:04.324Z,100462.13
2023-05-21T05:45:30.979Z,100459.00
2023-05-21T05:47:57.657Z,100461.00
2023-05-21T05:50:24.311Z,100458.38
2023-05-21T05:52:51.366Z,100453.00
2023-05-21T05:55:18.048Z,100455.66
2023-05-21T05:57:45.287Z,100455.94
2023-05-21T06:00:12.693Z,100448.69
2023-05-21T06:02:39.481Z,100447.34
2023-05-21T06:05:10.166Z,100446.56
2023-05-21T06:07:40.410Z,100444.41
2023-05-21T06:10:07.895Z,100445.31
2023-05-21T06:12:35.179Z,100434.72
2023-05-21T06:15:02.185Z,100437.53
2023-05-21T06:17:29.960Z,100440.78
2023-05-21T06:19:56.808Z,100438.34
2023-05-21T06:22:25.457Z,100439.88
2023-05-21T06:24:52.501Z,100432.81
2023-05-21T06:27:19.225Z,100432.22
2023-05-21T06:29:45.901Z,100424.94
2023-05-21T06:32:12.601Z,100416.41
2023-05-21T06:34:39.345Z,100412.88
2023-05-21T06:37:06.055Z,100411.25
2023-05-21T06:39:32.684Z,100411.97
2023-05-21T06:41:59.249Z,100412.84
2023-05-21T06:44:25.843Z,100412.72
2023-05-21T06:46:52.444Z,100415.50
2023-05-21T06:49:19.097Z,100420.34
2023-05-21T06:51:45.770Z,100408.00
2023-05-21T06:54:12.420Z,100408.25
2023-05-21T06:56:39.032Z,100401.97
2023-05-21T06:59:05.863Z,100402.44
2023-05-21T07:01:32.563Z,100405.00
2023-05-21T07:03:59.291Z,100403.56
2023-05-21T07:06:26.298Z,100400.22
2023-05-21T07:08:53.239Z,100401.31
2023-05-21T07:11:19.960Z,100396.28
2023-05-21T07:13:46.690Z,100399.25
2023-05-21T07:16:13.348Z,100400.13
2023-05-21T07:18:40.023Z,100401.22
2023-05-21T07:21:06.596Z,100401.88
2023-05-21T07:23:33.255Z,100396.19
2023-05-21T07:25:59.871Z,100392.63
2023-05-21T07:28:26.551Z,100400.00
2023-05-21T07:30:53.346Z,100386.34
2023-05-21T07:33:20.793Z,100395.00
2023-05-21T07:35:47.424Z,100392.91
2023-05-21T07:38:14.961Z,100383.41
2023-05-21T07:40:41.552Z,100384.47
2023-05-21T07:43:08.191Z,100391.84
2023-05-21T07:45:35.052Z,100398.41
2023-05-21T07:48:02.116Z,100388.06
2023-05-21T07:50:28.859Z,100385.34
2023-05-21T07:52:58.030Z,100385.53
2023-05-21T07:55:24.669Z,100381.72
2023-05-21T07:57:52.437Z,100379.59
2023-05-21T08:00:19.574Z,100378.75
2023-05-21T08:02:46.341Z,100389.91
2023-05-21T08:05:13.184Z,100380.59
2023-05-21T08:07:40.294Z,100383.94
2023-05-21T08:10:07.598Z,100382.88
2023-05-21T08:12:34.420Z,100395.53
2023-05-21T08:15:01.265Z,100389.56
2023-05-21T08:17:30.927Z,100393.97
2023-05-21T08:19:57.662Z,100391.81
2023-05-21T08:22:24.330Z,100394.75
2023-05-21T08:24:50.911Z,100400.16
2023-05-21T08:27:17.551Z,100388.66
2023-05-21T08:29:44.132Z,100393.94
2023-05-21T08:32:10.896Z,100389.47
2023-05-21T08:34:37.532Z,100387.06
2023-05-21T08:37:04.336Z,100391.38
2023-05-21T08:39:30.975Z,100378.97
2023-05-21T08:42:08.968Z,100382.91
2023-05-21T08:44:39.982Z,100386.81
2023-05-21T08:47:10.128Z,100384.22
2023-05-21T08:49:38.237Z,100386.72
2023-05-21T08:52:06.163Z,100390.47
2023-05-21T08:54:33.408Z,100388.50
2023-05-21T08:57:02.041Z,100384.81
2023-05-21T08:59:28.833Z,100388.59
2023-05-21T09:01:57.656Z,100383.63
2023-05-21T09:04:25.371Z,100385.72
2023-05-21T09:06:52.116Z,100380.66
2023-05-21T09:09:27.947Z,100380.28
2023-05-21T09:11:54.735Z,100375.50
2023-05-21T09:14:22.688Z,100383.53
2023-05-21T09:16:49.436Z,100378.09
2023-05-21T09:19:16.296Z,100368.88
2023-05-21T09:21:42.941Z,100380.41
2023-05-21T09:24:11.078Z,100364.13
2023-05-21T09:26:37.776Z,100375.53
2023-05-21T09:29:04.403Z,100370.63
2023-05-21T09:31:33.016Z,100379.31
2023-05-21T09:33:59.859Z,100382.53
2023-05-21T09:36:27.119Z,100371.16
2023-05-21T09:38:53.776Z,100375.09
2023-05-21T09:41:22.426Z,100370.66
2023-05-21T09:43:49.615Z,100379.44
2023-05-21T09:46:16.379Z,100371.88
2023-05-21T09:48:43.551Z,100373.19
2023-05-21T09:51:11.865Z,100374.50
2023-05-21T09:53:54.006Z,100377.72
2023-05-21T09:56:23.650Z,100369.31
2023-05-21T09:59:01.445Z,100366.09
2023-05-21T10:01:30.738Z,100362.44
2023-05-21T10:04:00.271Z,100365.66
2023-05-21T10:06:29.030Z,100367.28
2023-05-21T10:08:57.579Z,100370.59
2023-05-21T10:11:27.289Z,100357.84
2023-05-21T10:14:16.632Z,100356.53
2023-05-21T10:16:45.035Z,100350.03
2023-05-21T10:19:13.197Z,100347.44
2023-05-21T10:21:42.935Z,100352.34
2023-05-21T10:24:10.223Z,100354.44
2023-05-21T10:26:38.483Z,100358.38
2023-05-21T10:29:05.297Z,100348.59
2023-05-21T10:31:33.274Z,100356.00
2023-05-21T10:34:01.300Z,100345.66
2023-05-21T10:36:31.773Z,100348.84
2023-05-21T10:39:00.236Z,100348.97
2023-05-21T10:41:30.785Z,100343.25
2023-05-21T10:44:09.132Z,100343.06
2023-05-21T10:46:50.748Z,100341.72
2023-05-21T10:49:41.525Z,100338.28
2023-05-21T10:52:26.613Z,100338.91
2023-05-21T10:55:11.873Z,100327.38
2023-05-21T10:58:10.997Z,100331.19
2023-05-21T11:00:38.634Z,100333.72
2023-05-21T11:03:06.870Z,100321.25
2023-05-21T11:05:42.983Z,100320.41
2023-05-21T11:08:35.908Z,100322.66
2023-05-21T11:11:03.971Z,100327.81
2023-05-21T11:13:50.867Z,100317.97
2023-05-21T11:16:18.030Z,100330.84
2023-05-21T11:18:47.617Z,100315.31
2023-05-21T11:21:16.217Z,100324.28
2023-05-21T11:23:52.540Z,100311.63
2023-05-21T11:26:21.731Z,100320.59
2023-05-21T11:29:06.305Z,100321.31
2023-05-21T11:31:38.295Z,100312.94
2023-05-21T11:34:11.311Z,100313.88
2023-05-21T11:36:38.782Z,100311.22
2023-05-21T11:39:22.323Z,100311.25
2023-05-21T11:42:04.303Z,100313.19
2023-05-21T11:44:44.338Z,100307.13
2023-05-21T11:47:15.435Z,100309.94
2023-05-21T11:49:42.761Z,100307.16
2023-05-21T11:52:10.969Z,100300.53
2023-05-21T11:54:50.727Z,100299.72
2023-05-21T11:57:21.840Z,100296.47
2023-05-21T11:59:51.504Z,100305.69
2023-05-21T12:02:22.513Z,100291.84
2023-05-21T12:04:50.939Z,100299.66
2023-05-21T12:07:19.430Z,100294.91
2023-05-21T12:09:48.946Z,100294.94
2023-05-21T12:12:19.733Z,100294.94
2023-05-21T12:14:48.492Z,100291.59
2023-05-21T12:17:19.792Z,100284.38
2023-05-21T12:19:47.283Z,100281.88
2023-05-21T12:22:16.551Z,100289.69
2023-05-21T12:24:44.238Z,100277.13
2023-05-21T12:27:13.470Z,100283.84
2023-05-21T12:29:42.579Z,100281.34
2023-05-21T12:32:12.548Z,100278.28
2023-05-21T12:34:46.842Z,100268.53
2023-05-21T12:37:26.915Z,100278.81
2023-05-21T12:40:00.024Z,100273.25
2023-05-21T12:42:29.955Z,100277.41
2023-05-21T12:44:57.779Z,100264.34
2023-05-21T12:47:28.579Z,100264.06
2023-05-21T12:50:01.504Z,100275.75
2023-05-21T12:52:32.866Z,100259.31
2023-05-21T12:55:00.172Z,100263.53
2023-05-21T12:57:34.908Z,100251.56
2023-05-21T13:00:02.333Z,100258.75
2023-05-21T13:02:38.837Z,100258.50
2023-05-21T13:05:07.792Z,100258.75
2023-05-21T13:07:36.142Z,100253.50
2023-05-21T13:10:03.966Z,100251.31
2023-05-21T13:12:32.320Z,100246.00
2023-05-21T13:15:01.150Z,100244.63
2023-05-21T13:17:28.535Z,100227.84
2023-05-21T13:20:08.981Z,100229.22
2023-05-21T13:22:42.675Z,100231.13
2023-05-21T13:25:15.725Z,100231.25
2023-05-21T13:27:43.289Z,100223.19
2023-05-21T13:30:11.757Z,100226.06
2023-05-21T13:32:39.496Z,100225.03
2023-05-21T13:35:06.706Z,100221.66
2023-05-21T13:37:37.797Z,100215.56
2023-05-21T13:40:06.426Z,100210.84
2023-05-21T13:42:34.187Z,100210.13
2023-05-21T13:45:01.328Z,100206.75
2023-05-21T13:47:28.222Z,100204.50
2023-05-21T13:49:54.876Z,100204.53
2023-05-21T13:52:21.794Z,100208.59
2023-05-21T13:54:48.405Z,100201.13
2023-05-21T13:57:16.528Z,100199.13
2023-05-21T13:59:43.181Z,100196.22
2023-05-21T14:02:10.485Z,100202.09
2023-05-21T14:04:39.781Z,100203.19
2023-05-21T14:07:07.077Z,100200.94
2023-05-21T14:09:34.316Z,100197.03
2023-05-21T14:12:01.417Z,100196.22
2023-05-21T14:14:28.290Z,100198.13
2023-05-21T14:16:55.208Z,100199.25
2023-05-21T14:19:22.251Z,100201.69
2023-05-21T14:21:51.692Z,100191.03
2023-05-21T14:24:18.685Z,100197.28
2023-05-21T14:26:45.299Z,100193.38
2023-05-21T14:29:12.075Z,100196.59
2023-05-21T14:31:38.815Z,100183.00
2023-05-21T14:34:07.916Z,100184.88
2023-05-21T14:36:34.911Z,100182.47
2023-05-21T14:39:01.677Z,100180.66
2023-05-21T14:41:28.304Z,100182.84
2023-05-21T14:43:55.716Z,100187.03
2023-05-21T14:46:22.405Z,100180.56
2023-05-21T14:48:49.152Z,100176.69
2023-05-21T14:51:16.073Z,100173.53
2023-05-21T14:53:42.713Z,100175.97
2023-05-21T14:56:09.382Z,100178.22
2023-05-21T14:58:36.056Z,100169.38
2023-05-21T15:01:04.284Z,100172.81
2023-05-21T15:03:31.155Z,100177.09
2023-05-21T15:05:58.654Z,100171.03
2023-05-21T15:08:25.535Z,100173.47
2023-05-21T15:10:52.492Z,100179.38
2023-05-21T15:13:19.157Z,100172.94
2023-05-21T15:15:46.122Z,100168.78
2023-05-21T15:18:12.999Z,100167.06
2023-05-21T15:20:39.749Z,100168.72
2023-05-21T15:23:16.772Z,100167.66
2023-05-21T15:25:45.210Z,100170.22
2023-05-21T15:28:12.372Z,100173.00
2023-05-21T15:30:39.281Z,100166.91
2023-05-21T15:33:06.289Z,100166.59
2023-05-21T15:35:33.171Z,100163.13
2023-05-21T15:37:59.996Z,100167.88
2023-05-21T15:40:27.327Z,100161.41
2023-05-21T15:42:54.240Z,100159.09
2023-05-21T15:45:21.208Z,100167.16
2023-05-21T15:47:47.997Z,100162.22
2023-05-21T15:50:14.794Z,100162.13
2023-05-21T15:52:42.628Z,100170.75
2023-05-21T15:55:09.780Z,100171.72
2023-05-21T15:57:36.442Z,100168.06
2023-05-21T16:00:03.920Z,100176.19
2023-05-21T16:02:30.653Z,100166.44
2023-05-21T16:04:57.314Z,100167.88
2023-05-21T16:07:24.572Z,100166.94
2023-05-21T16:09:51.317Z,100169.41
2023-05-21T16:12:18.153Z,100171.13
2023-05-21T16:14:44.846Z,100177.94
2023-05-21T16:17:11.585Z,100176.31
2023-05-21T16:19:39.051Z,100162.31
2023-05-21T16:22:05.904Z,100171.66
2023-05-21T16:24:32.966Z,100178.31
2023-05-21T16:26:59.605Z,100174.94
2023-05-21T16:29:26.274Z,100173.00
2023-05-21T16:31:52.950Z,100167.66
2023-05-21T16:34:19.714Z,100173.06
2023-05-21T16:36:46.360Z,100186.31
2023-05-21T16:39:13.139Z,100184.47
2023-05-21T16:41:39.756Z,100188.47
2023-05-21T16:44:06.344Z,100188.56
2023-05-21T16:46:33.093Z,100184.91
2023-05-21T16:48:59.789Z,100188.81
2023-05-21T16:51:26.422Z,100179.56
2023-05-21T16:53:53.056Z,100188.03
2023-05-21T16:56:19.699Z,100190.75
2023-05-21T16:58:46.283Z,100192.06
2023-05-21T17:01:13.299Z,100198.88
2023-05-21T17:03:43.071Z,100197.34
2023-05-21T17:06:10.157Z,100200.13
2023-05-21T17:08:36.952Z,100207.41
2023-05-21T17:11:03.667Z,100213.44
2023-05-21T17:13:30.357Z,100200.84
2023-05-21T17:15:57.009Z,100203.78
2023-05-21T17:18:23.658Z,100206.69
2023-05-21T17:20:50.411Z,100208.63
2023-05-21T17:23:17.429Z,100201.66
2023-05-21T17:25:44.234Z,100209.88
2023-05-21T17:28:11.419Z,100195.91
2023-05-21T17:30:38.863Z,100200.69
2023-05-21T17:33:07.755Z,100194.38
2023-05-21T17:35:34.802Z,100196.28
2023-05-21T17:38:01.605Z,100202.22
2023-05-21T17:40:28.235Z,100205.59
2023-05-21T17:42:54.920Z,100203.56
2023-05-21T17:45:21.573Z,100202.56
2023-05-21T17:47:48.297Z,100207.88
2023-05-21T17:50:15.149Z,100209.28
2023-05-21T17:52:41.845Z,100205.75
2023-05-21T17:55:08.879Z,100208.03
2023-05-21T17:57:36.073Z,100202.22
2023-05-21T18:00:04.954Z,100202.66
2023-05-21T18:02:31.802Z,100202.16
2023-05-21T18:04:58.682Z,100206.59
2023-05-21T18:07:25.622Z,100206.94
2023-05-21T18:09:52.249Z,100203.94
2023-05-21T18:12:18.954Z,100209.28
2023-05-21T18:14:45.936Z,100205.78
2023-05-21T18:17:13.103Z,100209.53
2023-05-21T18:19:39.824Z,100201.91
2023-05-21T18:22:06.491Z,100201.94
2023-05-21T18:24:33.287Z,100193.19
2023-05-21T18:26:59.942Z,100199.91
2023-05-21T18:29:26.591Z,100203.03
2023-05-21T18:31:53.948Z,100205.00
2023-05-21T18:34:20.716Z,100211.88
2023-05-21T18:36:48.190Z,100225.50
2023-05-21T18:39:14.988Z,100218.34
2023-05-21T18:41:41.780Z,100221.78
2023-05-21T18:44:08.546Z,100226.31
2023-05-21T18:46:35.255Z,100229.38
2023-05-21T18:49:01.957Z,100222.66
2023-05-21T18:51:28.586Z,100222.88
2023-05-21T18:53:55.193Z,100220.75
2023-05-21T18:56:21.987Z,100232.16
2023-05-21T18:58:48.718Z,100224.81
2023-05-21T19:01:16.151Z,100235.38
2023-05-21T19:03:42.811Z,100227.75
2023-05-21T19:06:09.669Z,100238.25
2023-05-21T19:08:36.317Z,100231.06
2023-05-21T19:11:03.072Z,100231.91
2023-05-21T19:13:29.763Z,100237.63
2023-05-21T19:15:58.327Z,100236.47
2023-05-21T19:18:31.621Z,100247.38
2023-05-21T19:21:00.262Z,100249.66
2023-05-21T19:23:27.003Z,100256.13
2023-05-21T19:25:53.648Z,100254.94
2023-05-21T19:28:21.402Z,100250.22
2023-05-21T19:30:50.381Z,100256.75
2023-05-21T19:33:17.331Z,100254.06
2023-05-21T19:35:44.154Z,100251.06
2023-05-21T19:38:10.971Z,100252.03
2023-05-21T19:40:38.257Z,100255.72
2023-05-21T19:43:05.197Z,100263.00
2023-05-21T19:45:31.837Z,100260.47
2023-05-21T19:47:59.764Z,100260.63
2023-05-21T19:50:28.561Z,100258.97
2023-05-21T19:52:57.238Z,100259.44
2023-05-21T19:55:24.717Z,100259.88
2023-05-21T19:57:51.684Z,100261.25
2023-05-21T20:00:18.997Z,100265.19
2023-05-21T20:02:46.315Z,100263.06
2023-05-21T20:05:14.538Z,100266.69
2023-05-21T20:07:41.454Z,100269.06
2023-05-21T20:10:08.821Z,100274.59
2023-05-21T20:12:35.826Z,100264.94
2023-05-21T20:15:03.420Z,100271.38
2023-05-21T20:17:30.636Z,100266.28
2023-05-21T20:19:59.091Z,100262.63
2023-05-21T20:22:25.952Z,100269.22
2023-05-21T20:24:52.971Z,100259.66
2023-05-21T20:27:20.088Z,100268.75
2023-05-21T20:29:46.832Z,100266.03
2023-05-21T20:32:16.036Z,100270.28
2023-05-21T20:34:58.368Z,100261.25
2023-05-21T20:37:32.219Z,100260.50
2023-05-21T20:39:58.861Z,100262.84
2023-05-21T20:42:28.480Z,100266.31
2023-05-21T20:44:55.473Z,100267.25
2023-05-21T20:47:23.406Z,100263.13
2023-05-21T20:49:53.669Z,100273.44
2023-05-21T20:52:20.794Z,100263.13
2023-05-21T20:54:48.934Z,100268.88
2023-05-21T20:57:16.039Z,100263.59
2023-05-21T20:59:43.148Z,100265.28
2023-05-21T21:02:12.534Z,100262.22
2023-05-21T21:04:39.782Z,100258.63
2023-05-21T21:07:08.062Z,100256.38
2023-05-21T21:09:34.709Z,100255.03
2023-05-21T21:12:11.349Z,100262.72
2023-05-21T21:14:41.659Z,100256.94
2023-05-21T21:17:08.264Z,100257.97
2023-05-21T21:19:35.444Z,100260.19
2023-05-21T21:22:02.203Z,100260.09
2023-05-21T21:24:28.779Z,100250.31
2023-05-21T21:26:55.433Z,100255.28
2023-05-21T21:29:22.124Z,100257.34
2023-05-21T21:31:48.809Z,100261.28
2023-05-21T21:34:15.507Z,100252.38
2023-05-21T21:36:42.279Z,100251.34
2023-05-21T21:39:09.004Z,100256.97
2023-05-21T21:41:36.354Z,100253.47
2023-05-21T21:44:03.024Z,100252.44
2023-05-21T21:46:30.077Z,100258.94
2023-05-21T21:48:56.808Z,100267.56
2023-05-21T21:51:23.726Z,100273.28
2023-05-21T21:53:50.663Z,100292.34
2023-05-21T21:56:17.387Z,100270.66
2023-05-21T21:58:44.161Z,100289.88
2023-05-21T22:01:10.770Z,100288.97
2023-05-21T22:03:37.677Z,100285.50
2023-05-21T22:06:04.452Z,100276.03
2023-05-21T22:08:31.055Z,100285.19
2023-05-21T22:10:57.722Z,100284.97
2023-05-21T22:13:26.990Z,100282.94
2023-05-21T22:15:55.127Z,100284.63
2023-05-21T22:18:38.797Z,100278.44
2023-05-21T22:21:09.755Z,100285.84
2023-05-21T22:23:37.816Z,100291.59
2023-05-21T22:26:04.662Z,100292.22
2023-05-21T22:28:31.295Z,100292.41
2023-05-21T22:30:58.869Z,100291.94
2023-05-21T22:33:26.729Z,100286.97
2023-05-21T22:35:54.241Z,100288.28
2023-05-21T22:38:20.974Z,100301.72
2023-05-21T22:40:47.683Z,100299.28
2023-05-21T22:43:14.347Z,100288.56
2023-05-21T22:45:41.011Z,100299.09
2023-05-21T22:48:09.148Z,100298.44
2023-05-21T22:50:36.463Z,100292.41
2023-05-21T22:53:03.484Z,100299.19
2023-05-21T22:55:30.129Z,100296.28
2023-05-21T22:57:56.800Z,100294.78
2023-05-21T23:00:23.510Z,100286.59
2023-05-21T23:02:53.092Z,100287.63
2023-05-21T23:05:20.831Z,100302.28
2023-05-21T23:07:47.529Z,100303.69
2023-05-21T23:10:14.173Z,100292.50
2023-05-21T23:12:41.369Z,100290.38
2023-05-21T23:15:09.935Z,100288.00
2023-05-21T23:17:37.484Z,100288.22
2023-05-21T23:20:05.637Z,100291.28
2023-05-21T23:22:32.384Z,100293.38
2023-05-21T23:24:59.038Z,100289.78
2023-05-21T23:27:25.783Z,100298.34
2023-05-21T23:29:52.369Z,100288.66
2023-05-21T23:32:19.222Z,100285.66
2023-05-21T23:34:45.838Z,100283.09
2023-05-21T23:37:12.650Z,100284.97
2023-05-21T23:39:39.311Z,100284.97
2023-05-21T23:42:06.363Z,100283.47
2023-05-21T23:44:33.214Z,100270.13
2023-05-21T23:46:59.913Z,100277.47
2023-05-21T23:49:26.496Z,100271.72
2023-05-21T23:51:53.275Z,100262.25
2023-05-21T23:54:19.903Z,100268.53
2023-05-21T23:56:46.728Z,100269.06
2023-05-21T23:59:13.954Z,100263.16
